Asher, Kentucky
Current Conditions -  °F | °C
As of 6:15 PM on Saturday 25 Oct 2014 (Local Time) from KI35 Reporting Station
Scattered Clouds Scattered Clouds  
Wind Chill: 64°   Ceiling: Unl
Heat Index: 64°   Visibility: 10mi
Dew Point: 48°   Wind: 5mph
Humidity: 56%   Direction: 340°NNW
Pressure: 30.01"   Gusts: NA
Location:  37.04°N, 83.4°W
Report Text: KI35 252215Z AUTO 34004KT 10SM SCT037 SCT046 18/09 A3001 RMK AO1
Loading
Personal Weather Stations






























Interactive Weather Map New forecast layout! Learn more

10-Day Weather Forecast

Advertisements
Track Severe Weather on mobile